createdAt,value
2018-08-28T00:00:33.915Z,101086.17
2018-08-28T00:03:01.518Z,101086.17
2018-08-28T00:05:29.152Z,101089.17
2018-08-28T00:07:56.766Z,101091.15
2018-08-28T00:10:24.397Z,101090.31
2018-08-28T00:12:52.051Z,101096.89
2018-08-28T00:15:18.700Z,101099.96
2018-08-28T00:17:46.336Z,101102.28
2018-08-28T00:20:14.419Z,101106.27
2018-08-28T00:22:42.026Z,101111.70
2018-08-28T00:25:09.625Z,101116.83
2018-08-28T00:27:37.574Z,101121.01
2018-08-28T00:30:04.224Z,101122.22
2018-08-28T00:32:30.865Z,101126.06
2018-08-28T00:34:57.504Z,101120.89
2018-08-28T00:37:24.137Z,101130.20
2018-08-28T00:39:51.997Z,101128.98
2018-08-28T00:42:18.640Z,101126.82
2018-08-28T00:44:45.268Z,101129.82
2018-08-28T00:47:11.927Z,101133.62
2018-08-28T00:49:38.565Z,101129.33
2018-08-28T00:52:05.488Z,101135.78
2018-08-28T00:54:32.130Z,101142.92
2018-08-28T00:56:58.788Z,101143.41
2018-08-28T00:59:25.424Z,101146.08
2018-08-28T01:01:52.880Z,101148.31
2018-08-28T01:04:19.528Z,101153.98
2018-08-28T01:06:47.128Z,101155.58
2018-08-28T01:09:14.687Z,101155.92
2018-08-28T01:11:42.255Z,101155.38
2018-08-28T01:14:09.728Z,101162.02
2018-08-28T01:16:37.329Z,101163.36
2018-08-28T01:19:05.031Z,101166.13
2018-08-28T01:21:32.652Z,101168.25
2018-08-28T01:24:00.092Z,101179.08
2018-08-28T01:26:27.648Z,101183.34
2018-08-28T01:28:55.228Z,101182.73
2018-08-28T01:31:22.860Z,101179.80
2018-08-28T01:33:51.221Z,101179.58
2018-08-28T01:36:18.859Z,101182.23
2018-08-28T01:38:46.364Z,101187.78
2018-08-28T01:41:14.343Z,101188.61
2018-08-28T01:43:41.879Z,101187.55
2018-08-28T01:46:09.364Z,101191.19
2018-08-28T01:48:37.004Z,101198.27
2018-08-28T01:51:03.789Z,101197.20
2018-08-28T01:53:31.272Z,101195.18
2018-08-28T01:55:57.927Z,101202.86
2018-08-28T01:58:25.361Z,101203.01
2018-08-28T02:00:52.552Z,101203.84
2018-08-28T02:03:21.149Z,101208.67
2018-08-28T02:05:48.735Z,101214.62
2018-08-28T02:08:16.331Z,101211.74
2018-08-28T02:10:44.433Z,101211.25
2018-08-28T02:13:11.093Z,101212.46
2018-08-28T02:15:38.784Z,101210.15
2018-08-28T02:18:06.393Z,101209.80
2018-08-28T02:20:34.057Z,101202.66
2018-08-28T02:23:01.637Z,101204.48
2018-08-28T02:25:29.317Z,101206.66
2018-08-28T02:27:56.888Z,101214.28
2018-08-28T02:30:24.549Z,101217.06
2018-08-28T02:32:52.124Z,101219.95
2018-08-28T02:35:19.797Z,101220.78
2018-08-28T02:37:47.456Z,101217.78
2018-08-28T02:40:15.169Z,101223.02
2018-08-28T02:42:43.711Z,101223.02
2018-08-28T02:45:11.304Z,101218.69
2018-08-28T02:47:39.054Z,101222.93
2018-08-28T02:50:06.624Z,101216.28
2018-08-28T02:52:34.260Z,101216.37
2018-08-28T02:55:01.885Z,101215.88
2018-08-28T02:57:29.501Z,101220.96
2018-08-28T02:59:56.319Z,101218.22
2018-08-28T03:02:23.984Z,101225.09
2018-08-28T03:04:53.045Z,101224.41
2018-08-28T03:07:21.261Z,101225.36
2018-08-28T03:09:48.757Z,101231.05
2018-08-28T03:12:16.319Z,101234.55
2018-08-28T03:14:44.469Z,101237.13
2018-08-28T03:17:12.085Z,101241.45
2018-08-28T03:19:39.700Z,101248.25
2018-08-28T03:22:07.291Z,101251.25
2018-08-28T03:24:34.912Z,101252.23
2018-08-28T03:27:02.568Z,101259.08
2018-08-28T03:29:30.178Z,101265.38
2018-08-28T03:31:57.796Z,101270.05
2018-08-28T03:34:25.420Z,101277.97
2018-08-28T03:36:53.152Z,101282.11
2018-08-28T03:39:21.829Z,101283.49
2018-08-28T03:41:48.469Z,101284.97
2018-08-28T03:44:15.104Z,101283.14
2018-08-28T03:46:43.662Z,101286.55
2018-08-28T03:49:11.273Z,101294.84
2018-08-28T03:51:38.964Z,101289.80
2018-08-28T03:54:05.613Z,101289.30
2018-08-28T03:56:32.257Z,101298.46
2018-08-28T03:58:58.893Z,101300.42
2018-08-28T04:01:25.540Z,101301.00
2018-08-28T04:03:52.233Z,101299.38
2018-08-28T04:06:18.913Z,101298.37
2018-08-28T04:08:45.569Z,101311.23
2018-08-28T04:11:14.529Z,101314.55
2018-08-28T04:13:42.013Z,101319.92
2018-08-28T04:16:09.616Z,101320.52
2018-08-28T04:18:37.411Z,101322.69
2018-08-28T04:21:04.866Z,101323.18
2018-08-28T04:23:32.530Z,101326.77
2018-08-28T04:26:00.168Z,101326.67
2018-08-28T04:28:26.821Z,101327.06
2018-08-28T04:30:54.390Z,101331.39
2018-08-28T04:33:21.974Z,101323.37
2018-08-28T04:35:49.600Z,101322.77
2018-08-28T04:38:17.333Z,101327.70
2018-08-28T04:40:45.813Z,101327.70
2018-08-28T04:43:14.361Z,101331.83
2018-08-28T04:45:41.962Z,101329.81
2018-08-28T04:48:09.734Z,101325.82
2018-08-28T04:50:37.409Z,101328.59
2018-08-28T04:53:04.972Z,101331.08
2018-08-28T04:55:32.597Z,101328.59
2018-08-28T04:57:59.254Z,101332.58
2018-08-28T05:00:26.853Z,101339.80
2018-08-28T05:02:54.501Z,101347.78
2018-08-28T05:05:22.095Z,101347.29
2018-08-28T05:07:49.709Z,101352.40
2018-08-28T05:10:17.297Z,101353.49
2018-08-28T05:12:44.879Z,101356.25
2018-08-28T05:15:13.552Z,101358.23
2018-08-28T05:17:41.224Z,101355.17
2018-08-28T05:20:08.829Z,101356.50
2018-08-28T05:22:36.426Z,101362.70
2018-08-28T05:25:04.028Z,101359.74
2018-08-28T05:27:31.628Z,101364.08
2018-08-28T05:29:59.248Z,101367.02
2018-08-28T05:32:25.903Z,101366.64
2018-08-28T05:34:53.412Z,101374.22
2018-08-28T05:37:21.821Z,101380.38
2018-08-28T05:39:49.265Z,101374.41
2018-08-28T05:42:16.848Z,101376.27
2018-08-28T05:44:44.464Z,101377.41
2018-08-28T05:47:11.928Z,101377.16
2018-08-28T05:49:38.643Z,101378.25
2018-08-28T05:52:05.274Z,101376.34
2018-08-28T05:54:32.737Z,101379.33
2018-08-28T05:56:59.369Z,101386.23
2018-08-28T05:59:26.816Z,101382.34
2018-08-28T06:01:53.569Z,101384.80
2018-08-28T06:04:22.347Z,101391.20
2018-08-28T06:06:48.998Z,101390.31
2018-08-28T06:09:16.472Z,101395.00
2018-08-28T06:11:45.028Z,101392.18
2018-08-28T06:14:13.609Z,101399.87
2018-08-28T06:16:41.201Z,101397.59
2018-08-28T06:19:08.812Z,101399.62
2018-08-28T06:21:36.388Z,101403.70
2018-08-28T06:24:03.033Z,101405.91
2018-08-28T06:26:30.668Z,101405.47
2018-08-28T06:28:57.336Z,101406.50
2018-08-28T06:31:24.928Z,101408.43
2018-08-28T06:33:52.634Z,101402.77
2018-08-28T06:36:20.884Z,101402.63
2018-08-28T06:38:48.425Z,101405.91
2018-08-28T06:41:15.080Z,101407.20
2018-08-28T06:43:43.827Z,101402.86
2018-08-28T06:46:11.269Z,101410.09
2018-08-28T06:48:38.941Z,101404.30
2018-08-28T06:51:06.548Z,101408.29
2018-08-28T06:53:34.208Z,101415.66
2018-08-28T06:56:01.780Z,101413.14
2018-08-28T06:58:28.441Z,101410.78
2018-08-28T07:00:56.089Z,101420.05
2018-08-28T07:03:23.697Z,101418.02
2018-08-28T07:05:52.360Z,101423.20
2018-08-28T07:08:21.233Z,101422.61
2018-08-28T07:10:48.693Z,101424.52
2018-08-28T07:13:15.353Z,101428.31
2018-08-28T07:15:41.988Z,101435.89
2018-08-28T07:18:09.496Z,101432.84
2018-08-28T07:20:37.069Z,101433.72
2018-08-28T07:23:04.650Z,101435.89
2018-08-28T07:25:32.223Z,101435.65
2018-08-28T07:27:58.848Z,101435.30
2018-08-28T07:30:26.424Z,101440.83
2018-08-28T07:32:53.078Z,101438.11
2018-08-28T07:35:21.973Z,101441.80
2018-08-28T07:37:48.610Z,101443.48
2018-08-28T07:40:15.281Z,101452.19
2018-08-28T07:42:44.013Z,101450.86
2018-08-28T07:45:10.604Z,101454.11
2018-08-28T07:47:38.249Z,101451.70
2018-08-28T07:50:05.672Z,101456.17
2018-08-28T07:52:32.328Z,101456.32
2018-08-28T07:54:58.968Z,101463.81
2018-08-28T07:57:25.608Z,101460.86
2018-08-28T07:59:52.263Z,101462.97
2018-08-28T08:02:18.909Z,101463.91
2018-08-28T08:04:45.545Z,101464.25
2018-08-28T08:07:12.188Z,101466.91
2018-08-28T08:09:38.828Z,101465.83
2018-08-28T08:12:05.465Z,101464.50
2018-08-28T08:14:32.109Z,101462.69
2018-08-28T08:16:58.729Z,101467.89
2018-08-28T08:19:25.377Z,101475.23
2018-08-28T08:21:52.438Z,101473.56
2018-08-28T08:24:20.073Z,101471.73
2018-08-28T08:26:47.721Z,101473.21
2018-08-28T08:29:15.320Z,101472.92
2018-08-28T08:31:43.473Z,101474.75
2018-08-28T08:34:11.128Z,101475.59
2018-08-28T08:36:38.888Z,101481.74
2018-08-28T08:39:07.330Z,101480.20
2018-08-28T08:41:34.053Z,101472.09
2018-08-28T08:44:01.520Z,101481.63
2018-08-28T08:46:29.184Z,101480.16
2018-08-28T08:48:56.754Z,101482.97
2018-08-28T08:51:24.356Z,101486.58
2018-08-28T08:53:53.139Z,101491.05
2018-08-28T08:56:21.465Z,101488.30
2018-08-28T08:58:49.108Z,101487.84
2018-08-28T09:01:16.316Z,101492.88
2018-08-28T09:03:43.460Z,101489.23
2018-08-28T09:06:11.245Z,101487.34
2018-08-28T09:08:38.757Z,101485.88
2018-08-28T09:11:06.465Z,101486.72
2018-08-28T09:13:33.215Z,101490.22
2018-08-28T09:16:00.657Z,101486.58
2018-08-28T09:18:27.289Z,101483.31
2018-08-28T09:20:54.929Z,101480.80
2018-08-28T09:23:22.516Z,101480.30
2018-08-28T09:25:50.214Z,101491.43
2018-08-28T09:28:17.484Z,101496.86
2018-08-28T09:30:45.800Z,101487.55
2018-08-28T09:33:14.328Z,101491.89
2018-08-28T09:35:41.992Z,101488.88
2018-08-28T09:38:09.618Z,101487.45
2018-08-28T09:40:37.278Z,101490.94
2018-08-28T09:43:04.973Z,101490.70
2018-08-28T09:45:32.577Z,101493.50
2018-08-28T09:48:00.207Z,101488.53
2018-08-28T09:50:27.683Z,101485.38
2018-08-28T09:52:55.265Z,101495.42
2018-08-28T09:55:23.476Z,101487.90
2018-08-28T09:57:52.372Z,101490.56
2018-08-28T10:00:25.529Z,101490.36
2018-08-28T10:02:52.501Z,101489.52
2018-08-28T10:05:20.168Z,101489.38
2018-08-28T10:07:46.920Z,101492.38
2018-08-28T10:10:14.385Z,101489.72
2018-08-28T10:12:42.196Z,101479.58
2018-08-28T10:15:09.888Z,101480.80
2018-08-28T10:17:37.422Z,101487.30
2018-08-28T10:20:05.024Z,101485.73
2018-08-28T10:22:32.653Z,101487.30
2018-08-28T10:24:59.307Z,101486.32
2018-08-28T10:27:26.912Z,101488.28
2018-08-28T10:29:54.886Z,101491.43
2018-08-28T10:32:22.428Z,101488.77
2018-08-28T10:34:49.873Z,101498.78
2018-08-28T10:37:17.507Z,101494.93
2018-08-28T10:39:46.325Z,101494.09
2018-08-28T10:42:13.420Z,101494.20
2018-08-28T10:44:40.904Z,101495.88
2018-08-28T10:47:08.563Z,101493.22
2018-08-28T10:49:36.222Z,101494.93
2018-08-28T10:52:03.722Z,101498.78
2018-08-28T10:54:31.261Z,101507.25
2018-08-28T10:56:58.890Z,101503.86
2018-08-28T10:59:25.554Z,101501.09
2018-08-28T11:01:53.154Z,101506.52
2018-08-28T11:04:20.807Z,101506.16
2018-08-28T11:06:48.434Z,101507.25
2018-08-28T11:09:16.088Z,101507.70
2018-08-28T11:11:44.732Z,101509.81
2018-08-28T11:14:11.552Z,101510.19
2018-08-28T11:16:38.192Z,101510.14
2018-08-28T11:19:04.840Z,101511.30
2018-08-28T11:21:31.489Z,101506.77
2018-08-28T11:23:58.146Z,101506.62
2018-08-28T11:26:24.787Z,101507.01
2018-08-28T11:28:52.152Z,101509.17
2018-08-28T11:31:19.880Z,101511.00
2018-08-28T11:33:47.448Z,101514.84
2018-08-28T11:36:16.172Z,101504.20
2018-08-28T11:38:44.793Z,101511.00
2018-08-28T11:41:12.296Z,101508.80
2018-08-28T11:43:38.927Z,101509.78
2018-08-28T11:46:06.487Z,101516.32
2018-08-28T11:48:34.209Z,101512.79
2018-08-28T11:51:01.806Z,101521.75
2018-08-28T11:53:29.432Z,101516.23
2018-08-28T11:55:57.080Z,101517.77
2018-08-28T11:58:24.720Z,101512.09
2018-08-28T12:00:52.317Z,101510.27
2018-08-28T12:03:19.925Z,101515.10
2018-08-28T12:05:47.545Z,101517.56
2018-08-28T12:08:15.201Z,101514.06
2018-08-28T12:10:43.660Z,101514.06
2018-08-28T12:13:10.363Z,101515.73
2018-08-28T12:15:38.234Z,101510.41
2018-08-28T12:18:05.886Z,101514.27
2018-08-28T12:20:33.581Z,101511.75
2018-08-28T12:23:00.974Z,101514.52
2018-08-28T12:25:28.666Z,101517.67
2018-08-28T12:27:56.236Z,101521.31
2018-08-28T12:30:23.768Z,101513.33
2018-08-28T12:32:52.660Z,101511.02
2018-08-28T12:35:20.114Z,101504.75
2018-08-28T12:37:47.724Z,101504.75
2018-08-28T12:40:15.296Z,101496.04
2018-08-28T12:42:43.457Z,101509.34
2018-08-28T12:45:10.901Z,101512.98
2018-08-28T12:47:39.224Z,101512.98
2018-08-28T12:50:05.927Z,101509.83
2018-08-28T12:52:33.505Z,101513.83
2018-08-28T12:55:00.189Z,101516.00
2018-08-28T12:57:27.800Z,101510.32
2018-08-28T12:59:55.361Z,101508.50
2018-08-28T13:02:22.656Z,101506.69
2018-08-28T13:04:49.249Z,101500.17
2018-08-28T13:07:16.737Z,101497.16
2018-08-28T13:09:43.957Z,101497.16
2018-08-28T13:12:11.585Z,101494.02
2018-08-28T13:14:39.250Z,101498.20
2018-08-28T13:17:06.793Z,101496.67
2018-08-28T13:19:34.432Z,101494.13
2018-08-28T13:22:02.034Z,101493.78
2018-08-28T13:24:29.597Z,101496.78
2018-08-28T13:26:57.250Z,101498.34
2018-08-28T13:29:24.874Z,101505.75
2018-08-28T13:31:52.453Z,101496.92
2018-08-28T13:34:20.061Z,101493.92
2018-08-28T13:36:47.673Z,101499.94
2018-08-28T13:39:15.358Z,101498.26
2018-08-28T13:41:43.498Z,101492.59
2018-08-28T13:44:11.672Z,101494.76
2018-08-28T13:46:39.292Z,101492.24
2018-08-28T13:49:06.893Z,101493.92
2018-08-28T13:51:34.548Z,101493.92
2018-08-28T13:54:02.305Z,101490.91
2018-08-28T13:56:29.723Z,101487.87
2018-08-28T13:58:57.332Z,101489.58
2018-08-28T14:01:24.634Z,101485.09
2018-08-28T14:03:52.257Z,101486.54
2018-08-28T14:06:19.885Z,101491.37
2018-08-28T14:08:47.606Z,101490.91
2018-08-28T14:11:15.213Z,101486.05
2018-08-28T14:13:41.974Z,101486.05
2018-08-28T14:16:09.552Z,101488.11
2018-08-28T14:18:37.129Z,101487.87
2018-08-28T14:21:04.704Z,101488.59
2018-08-28T14:23:32.361Z,101487.37
2018-08-28T14:25:59.822Z,101493.69
2018-08-28T14:28:27.785Z,101489.69
2018-08-28T14:30:55.377Z,101494.17
2018-08-28T14:33:24.349Z,101497.19
2018-08-28T14:35:51.896Z,101494.41
2018-08-28T14:38:19.785Z,101488.02
2018-08-28T14:40:47.444Z,101491.86
2018-08-28T14:43:14.732Z,101488.85
2018-08-28T14:45:41.370Z,101486.20
2018-08-28T14:48:08.941Z,101488.71
2018-08-28T14:50:35.683Z,101487.17
2018-08-28T14:53:03.266Z,101485.35
2018-08-28T14:55:29.908Z,101492.36
2018-08-28T14:57:57.577Z,101489.69
2018-08-28T15:00:25.173Z,101486.20
2018-08-28T15:02:52.784Z,101484.52
2018-08-28T15:05:20.368Z,101482.84
2018-08-28T15:07:58.593Z,101484.52
2018-08-28T15:10:26.289Z,101481.03
2018-08-28T15:12:57.076Z,101487.28
2018-08-28T15:15:26.488Z,101484.17
2018-08-28T15:17:55.690Z,101482.45
2018-08-28T15:20:24.039Z,101482.45
2018-08-28T15:22:53.055Z,101477.14
2018-08-28T15:25:21.987Z,101485.50
2018-08-28T15:27:53.746Z,101478.95
2018-08-28T15:30:27.066Z,101487.08
2018-08-28T15:32:55.074Z,101486.59
2018-08-28T15:35:22.983Z,101485.26
2018-08-28T15:37:52.429Z,101485.26
2018-08-28T15:40:20.201Z,101483.79
2018-08-28T15:42:53.656Z,101482.84
2018-08-28T15:45:21.801Z,101486.45
2018-08-28T15:47:49.481Z,101482.11
2018-08-28T15:50:17.467Z,101484.63
2018-08-28T15:52:46.767Z,101484.17
2018-08-28T15:55:15.917Z,101488.62
2018-08-28T15:57:46.779Z,101482.95
2018-08-28T16:00:14.352Z,101485.75
2018-08-28T16:02:46.265Z,101485.41
2018-08-28T16:05:16.788Z,101489.88
2018-08-28T16:07:44.981Z,101494.33
2018-08-28T16:10:12.090Z,101490.73
2018-08-28T16:12:43.870Z,101491.56
2018-08-28T16:15:12.300Z,101491.67
2018-08-28T16:17:45.152Z,101493.73
2018-08-28T16:22:55.142Z,101495.19
2018-08-28T16:25:29.209Z,101496.64
2018-08-28T16:27:59.520Z,101502.31
2018-08-28T16:30:29.312Z,101492.05
2018-08-28T16:33:00.502Z,101493.38
2018-08-28T16:35:29.366Z,101493.38
2018-08-28T16:37:57.035Z,101494.83
2018-08-28T16:40:24.777Z,101491.22
2018-08-28T16:42:53.058Z,101490.73
2018-08-28T16:45:21.831Z,101490.23
2018-08-28T16:47:52.030Z,101490.34
2018-08-28T16:50:25.502Z,101493.64
2018-08-28T16:52:54.067Z,101493.26
2018-08-28T16:55:24.058Z,101491.44
2018-08-28T16:57:54.284Z,101490.00
2018-08-28T17:00:25.134Z,101490.00
2018-08-28T17:02:53.478Z,101490.59
2018-08-28T17:05:20.250Z,101496.30
2018-08-28T17:07:49.309Z,101496.30
2018-08-28T17:10:18.187Z,101503.41
2018-08-28T17:12:46.419Z,101497.25
2018-08-28T17:17:49.061Z,101497.84
2018-08-28T17:20:17.884Z,101493.86
2018-08-28T17:22:46.233Z,101490.98
2018-08-28T17:25:14.798Z,101491.44
2018-08-28T17:27:49.820Z,101493.75
2018-08-28T17:30:23.382Z,101490.25
2018-08-28T17:33:01.254Z,101496.31
2018-08-28T17:35:32.135Z,101491.98
2018-08-28T17:38:00.170Z,101501.48
2018-08-28T17:40:29.598Z,101497.36
2018-08-28T17:43:03.438Z,101505.23
2018-08-28T17:45:33.651Z,101509.61
2018-08-28T17:48:02.541Z,101506.60
2018-08-28T17:50:31.582Z,101506.11
2018-08-28T17:53:01.079Z,101508.77
2018-08-28T17:55:30.413Z,101512.63
2018-08-28T17:57:59.711Z,101511.78
2018-08-28T18:00:28.680Z,101510.94
2018-08-28T18:02:58.112Z,101510.94
2018-08-28T18:05:27.761Z,101514.09
2018-08-28T18:08:00.464Z,101519.76
2018-08-28T18:10:31.898Z,101519.66
2018-08-28T18:13:02.565Z,101528.13
2018-08-28T18:15:32.118Z,101526.56
2018-08-28T18:18:01.666Z,101532.61
2018-08-28T18:20:31.003Z,101537.44
2018-08-28T18:22:58.504Z,101527.15
2018-08-28T18:25:26.103Z,101532.02
2018-08-28T18:27:53.580Z,101534.82
2018-08-28T18:30:20.368Z,101532.77
2018-08-28T18:32:48.035Z,101535.66
2018-08-28T18:35:14.688Z,101534.93
2018-08-28T18:37:41.326Z,101540.48
2018-08-28T18:40:07.978Z,101538.81
2018-08-28T18:42:34.644Z,101540.88
2018-08-28T18:45:01.304Z,101545.36
2018-08-28T18:47:27.944Z,101549.06
2018-08-28T18:49:54.599Z,101545.57
2018-08-28T18:52:22.566Z,101545.70
2018-08-28T18:54:51.414Z,101548.51
2018-08-28T18:57:18.924Z,101545.01
2018-08-28T18:59:46.401Z,101540.39
2018-08-28T19:02:14.713Z,101544.03
2018-08-28T19:04:42.105Z,101541.13
2018-08-28T19:07:09.580Z,101537.77
2018-08-28T19:09:36.274Z,101537.98
2018-08-28T19:14:38.108Z,101539.13
2018-08-28T19:17:05.683Z,101541.55
2018-08-28T19:19:33.320Z,101539.31
2018-08-28T19:22:00.904Z,101535.01
2018-08-28T19:24:28.564Z,101530.88
2018-08-28T19:26:56.161Z,101530.63
2018-08-28T19:29:23.781Z,101530.39
2018-08-28T19:31:52.880Z,101529.06
2018-08-28T19:34:20.445Z,101531.38
2018-08-28T19:36:48.057Z,101528.71
2018-08-28T19:39:15.662Z,101526.16
2018-08-28T19:41:43.929Z,101529.06
2018-08-28T19:44:11.671Z,101525.66
2018-08-28T19:46:39.243Z,101529.45
2018-08-28T19:49:06.859Z,101519.80
2018-08-28T19:51:34.452Z,101525.11
2018-08-28T19:54:01.197Z,101525.11
2018-08-28T19:56:28.687Z,101526.05
2018-08-28T19:58:56.375Z,101522.70
2018-08-28T20:01:23.021Z,101522.45
2018-08-28T20:03:51.430Z,101524.52
2018-08-28T20:06:19.119Z,101520.88
2018-08-28T20:08:45.772Z,101520.14
2018-08-28T20:11:14.199Z,101519.30
2018-08-28T20:13:40.868Z,101523.05
2018-08-28T20:16:07.494Z,101524.63
2018-08-28T20:18:34.152Z,101528.61
2018-08-28T20:21:01.772Z,101524.52
2018-08-28T20:23:29.380Z,101520.63
2018-08-28T20:25:56.976Z,101518.25
2018-08-28T20:28:23.636Z,101517.27
2018-08-28T20:30:52.410Z,101521.75
2018-08-28T20:33:19.045Z,101524.90
2018-08-28T20:35:46.529Z,101523.08
2018-08-28T20:38:14.224Z,101519.80
2018-08-28T20:40:41.905Z,101518.11
2018-08-28T20:43:08.849Z,101525.84
2018-08-28T20:45:36.391Z,101524.52
2018-08-28T20:48:04.125Z,101515.59
2018-08-28T20:50:30.762Z,101516.19
2018-08-28T20:52:57.396Z,101514.63
2018-08-28T20:55:24.957Z,101518.98
2018-08-28T20:57:52.519Z,101517.03
2018-08-28T21:00:20.141Z,101517.20
2018-08-28T21:02:47.512Z,101515.11
2018-08-28T21:05:21.973Z,101517.42
2018-08-28T21:07:48.635Z,101513.29
2018-08-28T21:10:16.316Z,101509.69
2018-08-28T21:12:44.886Z,101513.19
2018-08-28T21:15:13.510Z,101518.02
2018-08-28T21:17:41.084Z,101519.48
2018-08-28T21:20:08.980Z,101516.93
2018-08-28T21:22:36.513Z,101512.34
2018-08-28T21:25:04.209Z,101511.72
2018-08-28T21:27:31.801Z,101510.63
2018-08-28T21:29:58.628Z,101511.96
2018-08-28T21:32:26.072Z,101517.31
2018-08-28T21:34:53.516Z,101514.41
2018-08-28T21:37:21.146Z,101513.33
2018-08-28T21:39:48.716Z,101515.39
2018-08-28T21:42:16.386Z,101518.61
2018-08-28T21:44:44.510Z,101518.02
2018-08-28T21:47:12.156Z,101518.75
2018-08-28T21:49:39.816Z,101517.56
2018-08-28T21:52:07.393Z,101523.12
2018-08-28T21:54:35.036Z,101518.89
2018-08-28T21:57:02.651Z,101523.22
2018-08-28T21:59:30.278Z,101522.59
2018-08-28T22:01:57.868Z,101530.22
2018-08-28T22:04:25.444Z,101527.80
2018-08-28T22:09:02.271Z,101524.31
2018-08-28T22:11:28.945Z,101524.42
2018-08-28T22:13:55.576Z,101523.88
2018-08-28T22:16:22.748Z,101519.31
2018-08-28T22:18:49.524Z,101521.44
2018-08-28T22:21:17.001Z,101526.62
2018-08-28T22:23:44.601Z,101526.97
2018-08-28T22:26:12.220Z,101526.52
2018-08-28T22:28:39.817Z,101523.96
2018-08-28T22:31:07.422Z,101519.76
2018-08-28T22:33:34.896Z,101520.81
2018-08-28T22:36:02.546Z,101524.20
2018-08-28T22:38:30.153Z,101520.95
2018-08-28T22:40:57.813Z,101525.78
2018-08-28T22:43:25.344Z,101523.75
2018-08-28T22:45:52.804Z,101525.19
2018-08-28T22:48:20.441Z,101522.38
2018-08-28T22:50:48.037Z,101517.94
2018-08-28T22:53:15.703Z,101520.60
2018-08-28T22:55:44.317Z,101517.45
2018-08-28T22:58:10.969Z,101526.02
2018-08-28T23:00:38.431Z,101520.11
2018-08-28T23:03:05.153Z,101520.84
2018-08-28T23:05:32.800Z,101521.58
2018-08-28T23:07:59.453Z,101516.72
2018-08-28T23:10:26.100Z,101518.05
2018-08-28T23:12:52.755Z,101513.12
2018-08-28T23:15:19.404Z,101513.95
2018-08-28T23:17:46.093Z,101512.63
2018-08-28T23:20:13.682Z,101511.89
2018-08-28T23:22:40.326Z,101511.55
2018-08-28T23:25:06.960Z,101509.83
2018-08-28T23:27:33.600Z,101504.66
2018-08-28T23:30:00.241Z,101504.76
2018-08-28T23:32:26.876Z,101507.55
2018-08-28T23:34:53.531Z,101507.80
2018-08-28T23:37:21.792Z,101509.13
2018-08-28T23:39:49.296Z,101500.91
2018-08-28T23:42:16.924Z,101504.76
2018-08-28T23:44:44.432Z,101499.94
2018-08-28T23:47:12.010Z,101503.57
2018-08-28T23:49:39.667Z,101501.41
2018-08-28T23:52:08.184Z,101500.08
2018-08-28T23:54:36.352Z,101501.05
2018-08-28T23:57:03.967Z,101496.09
2018-08-28T23:59:32.560Z,101496.92
